sensor_id;sensor_type;location;lat;lon;timestamp;pressure;altitude;pressure_sealevel;temperature;humidity
65760;BME280;52496;51.082;5.066;2023-01-31T00:00:50;102494.72;;;1.59;100.00
65760;BME280;52496;51.082;5.066;2023-01-31T00:03:20;102499.88;;;1.61;100.00
65760;BME280;52496;51.082;5.066;2023-01-31T00:05:51;102499.72;;;1.64;100.00
65760;BME280;52496;51.082;5.066;2023-01-31T00:08:21;102493.53;;;1.65;100.00
65760;BME280;52496;51.082;5.066;2023-01-31T00:10:51;102496.06;;;1.67;100.00
65760;BME280;52496;51.082;5.066;2023-01-31T00:13:22;102504.81;;;1.67;100.00
65760;BME280;52496;51.082;5.066;2023-01-31T00:15:55;102506.53;;;1.68;100.00
65760;BME280;52496;51.082;5.066;2023-01-31T00:18:26;102501.44;;;1.65;100.00
65760;BME280;52496;51.082;5.066;2023-01-31T00:20:57;102499.03;;;1.60;100.00
65760;BME280;52496;51.082;5.066;2023-01-31T00:23:27;102496.50;;;1.59;100.00
65760;BME280;52496;51.082;5.066;2023-01-31T00:28:45;102501.94;;;1.56;100.00
65760;BME280;52496;51.082;5.066;2023-01-31T00:31:16;102496.56;;;1.57;100.00
65760;BME280;52496;51.082;5.066;2023-01-31T00:33:48;102491.28;;;1.57;100.00
65760;BME280;52496;51.082;5.066;2023-01-31T00:36:24;102493.69;;;1.62;100.00
65760;BME280;52496;51.082;5.066;2023-01-31T00:38:57;102487.47;;;1.63;100.00
65760;BME280;52496;51.082;5.066;2023-01-31T00:41:29;102492.41;;;1.69;100.00
65760;BME280;52496;51.082;5.066;2023-01-31T00:44:00;102500.91;;;1.74;100.00
65760;BME280;52496;51.082;5.066;2023-01-31T00:46:31;102504.13;;;1.79;100.00
65760;BME280;52496;51.082;5.066;2023-01-31T00:49:01;102488.13;;;1.82;100.00
65760;BME280;52496;51.082;5.066;2023-01-31T00:51:32;102491.69;;;1.81;100.00
65760;BME280;52496;51.082;5.066;2023-01-31T00:54:02;102493.56;;;1.79;100.00
65760;BME280;52496;51.082;5.066;2023-01-31T00:56:33;102477.91;;;1.76;100.00
65760;BME280;52496;51.082;5.066;2023-01-31T00:59:03;102481.31;;;1.78;100.00
65760;BME280;52496;51.082;5.066;2023-01-31T01:01:37;102492.66;;;1.80;100.00
65760;BME280;52496;51.082;5.066;2023-01-31T01:04:08;102495.00;;;1.85;100.00
65760;BME280;52496;51.082;5.066;2023-01-31T01:06:38;102486.00;;;1.89;100.00
65760;BME280;52496;51.082;5.066;2023-01-31T01:09:10;102483.25;;;1.91;100.00
65760;BME280;52496;51.082;5.066;2023-01-31T01:11:41;102477.81;;;1.94;100.00
65760;BME280;52496;51.082;5.066;2023-01-31T01:14:11;102475.00;;;1.97;100.00
65760;BME280;52496;51.082;5.066;2023-01-31T01:16:42;102478.59;;;1.96;100.00
65760;BME280;52496;51.082;5.066;2023-01-31T01:19:16;102476.13;;;1.93;100.00
65760;BME280;52496;51.082;5.066;2023-01-31T01:21:47;102474.69;;;1.87;100.00
65760;BME280;52496;51.082;5.066;2023-01-31T01:24:18;102472.28;;;1.82;100.00
65760;BME280;52496;51.082;5.066;2023-01-31T01:26:49;102483.00;;;1.79;100.00
65760;BME280;52496;51.082;5.066;2023-01-31T01:29:19;102482.28;;;1.77;100.00
65760;BME280;52496;51.082;5.066;2023-01-31T01:31:50;102485.41;;;1.84;100.00
65760;BME280;52496;51.082;5.066;2023-01-31T01:34:20;102486.25;;;1.84;100.00
65760;BME280;52496;51.082;5.066;2023-01-31T01:36:51;102473.91;;;1.85;100.00
65760;BME280;52496;51.082;5.066;2023-01-31T01:39:21;102482.66;;;1.86;100.00
65760;BME280;52496;51.082;5.066;2023-01-31T01:41:52;102481.94;;;1.83;100.00
65760;BME280;52496;51.082;5.066;2023-01-31T01:44:42;102476.72;;;1.82;100.00
65760;BME280;52496;51.082;5.066;2023-01-31T01:50:18;102465.59;;;1.77;100.00
65760;BME280;52496;51.082;5.066;2023-01-31T01:52:55;102453.44;;;1.74;100.00
65760;BME280;52496;51.082;5.066;2023-01-31T01:58:31;102458.03;;;1.71;100.00
65760;BME280;52496;51.082;5.066;2023-01-31T02:01:04;102452.84;;;1.69;100.00
65760;BME280;52496;51.082;5.066;2023-01-31T02:03:36;102441.34;;;1.70;100.00
65760;BME280;52496;51.082;5.066;2023-01-31T02:06:07;102448.50;;;1.68;100.00
65760;BME280;52496;51.082;5.066;2023-01-31T02:08:39;102457.88;;;1.74;100.00
65760;BME280;52496;51.082;5.066;2023-01-31T02:11:25;102437.59;;;1.74;100.00
65760;BME280;52496;51.082;5.066;2023-01-31T02:14:08;102453.44;;;1.74;100.00
65760;BME280;52496;51.082;5.066;2023-01-31T02:16:39;102449.94;;;1.74;100.00
65760;BME280;52496;51.082;5.066;2023-01-31T02:19:21;102452.66;;;1.72;100.00
65760;BME280;52496;51.082;5.066;2023-01-31T02:22:18;102450.69;;;1.76;100.00
65760;BME280;52496;51.082;5.066;2023-01-31T02:31:30;102455.44;;;1.85;100.00
65760;BME280;52496;51.082;5.066;2023-01-31T02:34:15;102453.66;;;1.86;100.00
65760;BME280;52496;51.082;5.066;2023-01-31T02:42:59;102458.00;;;1.87;100.00
65760;BME280;52496;51.082;5.066;2023-01-31T02:46:13;102457.25;;;1.84;100.00
65760;BME280;52496;51.082;5.066;2023-01-31T02:48:52;102461.75;;;1.82;100.00
65760;BME280;52496;51.082;5.066;2023-01-31T02:51:26;102456.63;;;1.79;100.00
65760;BME280;52496;51.082;5.066;2023-01-31T02:54:06;102446.00;;;1.81;100.00
65760;BME280;52496;51.082;5.066;2023-01-31T02:56:38;102451.19;;;1.82;100.00
65760;BME280;52496;51.082;5.066;2023-01-31T02:59:22;102451.97;;;1.84;100.00
65760;BME280;52496;51.082;5.066;2023-01-31T03:02:01;102445.91;;;1.82;100.00
65760;BME280;52496;51.082;5.066;2023-01-31T03:04:33;102449.50;;;1.81;100.00
65760;BME280;52496;51.082;5.066;2023-01-31T03:07:14;102452.91;;;1.83;100.00
65760;BME280;52496;51.082;5.066;2023-01-31T03:10:08;102443.44;;;1.79;100.00
65760;BME280;52496;51.082;5.066;2023-01-31T03:15:26;102450.88;;;1.73;100.00
65760;BME280;52496;51.082;5.066;2023-01-31T03:18:25;102445.69;;;1.71;100.00
65760;BME280;52496;51.082;5.066;2023-01-31T03:21:04;102440.50;;;1.70;100.00
65760;BME280;52496;51.082;5.066;2023-01-31T03:23:38;102443.22;;;1.68;100.00
65760;BME280;52496;51.082;5.066;2023-01-31T03:26:10;102449.53;;;1.66;100.00
65760;BME280;52496;51.082;5.066;2023-01-31T03:28:42;102439.81;;;1.66;100.00
65760;BME280;52496;51.082;5.066;2023-01-31T03:31:23;102450.53;;;1.63;100.00
65760;BME280;52496;51.082;5.066;2023-01-31T03:33:58;102441.78;;;1.63;100.00
65760;BME280;52496;51.082;5.066;2023-01-31T03:36:48;102434.72;;;1.63;100.00
65760;BME280;52496;51.082;5.066;2023-01-31T03:42:02;102433.34;;;1.72;100.00
65760;BME280;52496;51.082;5.066;2023-01-31T03:44:52;102430.63;;;1.73;100.00
65760;BME280;52496;51.082;5.066;2023-01-31T03:47:30;102431.38;;;1.75;100.00
65760;BME280;52496;51.082;5.066;2023-01-31T03:50:11;102439.28;;;1.75;100.00
65760;BME280;52496;51.082;5.066;2023-01-31T03:53:36;102437.50;;;1.76;100.00
65760;BME280;52496;51.082;5.066;2023-01-31T03:56:07;102434.88;;;1.76;100.00
65760;BME280;52496;51.082;5.066;2023-01-31T03:58:46;102444.56;;;1.75;100.00
65760;BME280;52496;51.082;5.066;2023-01-31T04:01:22;102432.34;;;1.74;100.00
65760;BME280;52496;51.082;5.066;2023-01-31T04:03:58;102425.34;;;1.73;100.00
65760;BME280;52496;51.082;5.066;2023-01-31T04:06:30;102422.13;;;1.68;100.00
65760;BME280;52496;51.082;5.066;2023-01-31T04:09:00;102419.56;;;1.67;100.00
65760;BME280;52496;51.082;5.066;2023-01-31T04:11:36;102423.06;;;1.67;100.00
65760;BME280;52496;51.082;5.066;2023-01-31T04:14:08;102423.06;;;1.67;100.00
65760;BME280;52496;51.082;5.066;2023-01-31T04:16:39;102424.00;;;1.66;100.00
65760;BME280;52496;51.082;5.066;2023-01-31T04:19:10;102434.72;;;1.63;100.00
65760;BME280;52496;51.082;5.066;2023-01-31T04:21:40;102429.63;;;1.60;100.00
65760;BME280;52496;51.082;5.066;2023-01-31T04:24:11;102433.22;;;1.59;100.00
65760;BME280;52496;51.082;5.066;2023-01-31T04:26:41;102433.38;;;1.56;100.00
65760;BME280;52496;51.082;5.066;2023-01-31T04:29:11;102438.66;;;1.56;100.00
65760;BME280;52496;51.082;5.066;2023-01-31T04:31:42;102428.09;;;1.56;100.00
65760;BME280;52496;51.082;5.066;2023-01-31T04:34:12;102447.31;;;1.58;100.00
65760;BME280;52496;51.082;5.066;2023-01-31T04:36:43;102446.41;;;1.59;100.00
65760;BME280;52496;51.082;5.066;2023-01-31T04:39:13;102446.41;;;1.59;100.00
65760;BME280;52496;51.082;5.066;2023-01-31T04:41:45;102451.66;;;1.59;100.00
65760;BME280;52496;51.082;5.066;2023-01-31T04:44:15;102450.91;;;1.57;100.00
65760;BME280;52496;51.082;5.066;2023-01-31T04:46:46;102448.44;;;1.54;100.00
65760;BME280;52496;51.082;5.066;2023-01-31T04:49:16;102452.09;;;1.51;100.00
65760;BME280;52496;51.082;5.066;2023-01-31T04:51:46;102435.53;;;1.49;100.00
65760;BME280;52496;51.082;5.066;2023-01-31T04:54:17;102432.19;;;1.46;100.00
65760;BME280;52496;51.082;5.066;2023-01-31T04:56:47;102431.34;;;1.45;100.00
65760;BME280;52496;51.082;5.066;2023-01-31T04:59:18;102433.91;;;1.47;100.00
65760;BME280;52496;51.082;5.066;2023-01-31T05:01:48;102423.19;;;1.50;100.00
65760;BME280;52496;51.082;5.066;2023-01-31T05:04:19;102420.53;;;1.50;100.00
65760;BME280;52496;51.082;5.066;2023-01-31T05:06:51;102409.91;;;1.51;100.00
65760;BME280;52496;51.082;5.066;2023-01-31T05:09:22;102412.47;;;1.53;100.00
65760;BME280;52496;51.082;5.066;2023-01-31T05:11:52;102403.59;;;1.54;100.00
65760;BME280;52496;51.082;5.066;2023-01-31T05:14:23;102393.06;;;1.54;100.00
65760;BME280;52496;51.082;5.066;2023-01-31T05:16:54;102373.81;;;1.52;100.00
65760;BME280;52496;51.082;5.066;2023-01-31T05:19:24;102375.56;;;1.53;100.00
65760;BME280;52496;51.082;5.066;2023-01-31T05:21:55;102366.69;;;1.54;100.00
65760;BME280;52496;51.082;5.066;2023-01-31T05:24:30;102365.84;;;1.53;100.00
65760;BME280;52496;51.082;5.066;2023-01-31T05:27:01;102373.66;;;1.55;100.00
65760;BME280;52496;51.082;5.066;2023-01-31T05:29:32;102367.53;;;1.54;100.00
65760;BME280;52496;51.082;5.066;2023-01-31T05:32:03;102363.97;;;1.55;100.00
65760;BME280;52496;51.082;5.066;2023-01-31T05:34:33;102365.75;;;1.55;100.00
65760;BME280;52496;51.082;5.066;2023-01-31T05:37:04;102361.41;;;1.54;100.00
65760;BME280;52496;51.082;5.066;2023-01-31T05:39:35;102356.13;;;1.54;100.00
65760;BME280;52496;51.082;5.066;2023-01-31T05:42:06;102355.47;;;1.50;100.00
65760;BME280;52496;51.082;5.066;2023-01-31T05:44:36;102353.69;;;1.51;100.00
65760;BME280;52496;51.082;5.066;2023-01-31T05:47:07;102349.34;;;1.50;100.00
65760;BME280;52496;51.082;5.066;2023-01-31T05:49:38;102347.63;;;1.49;100.00
65760;BME280;52496;51.082;5.066;2023-01-31T05:52:09;102351.22;;;1.48;100.00
65760;BME280;52496;51.082;5.066;2023-01-31T05:54:39;102357.44;;;1.47;100.00
65760;BME280;52496;51.082;5.066;2023-01-31T05:57:10;102350.38;;;1.47;100.00
65760;BME280;52496;51.082;5.066;2023-01-31T05:59:41;102346.78;;;1.48;100.00
65760;BME280;52496;51.082;5.066;2023-01-31T06:02:11;102346.72;;;1.50;100.00
65760;BME280;52496;51.082;5.066;2023-01-31T06:04:41;102347.47;;;1.52;100.00
65760;BME280;52496;51.082;5.066;2023-01-31T06:07:12;102338.47;;;1.56;100.00
65760;BME280;52496;51.082;5.066;2023-01-31T06:09:43;102341.66;;;1.61;100.00
65760;BME280;52496;51.082;5.066;2023-01-31T06:12:13;102354.66;;;1.64;100.00
65760;BME280;52496;51.082;5.066;2023-01-31T06:14:44;102350.94;;;1.68;100.00
65760;BME280;52496;51.082;5.066;2023-01-31T06:17:15;102342.84;;;1.71;100.00
65760;BME280;52496;51.082;5.066;2023-01-31T06:19:46;102362.72;;;1.77;100.00
65760;BME280;52496;51.082;5.066;2023-01-31T06:22:20;102370.47;;;1.80;100.00
65760;BME280;52496;51.082;5.066;2023-01-31T06:24:50;102366.78;;;1.82;100.00
65760;BME280;52496;51.082;5.066;2023-01-31T06:27:21;102370.09;;;1.86;100.00
65760;BME280;52496;51.082;5.066;2023-01-31T06:29:51;102361.91;;;1.91;100.00
65760;BME280;52496;51.082;5.066;2023-01-31T06:32:22;102357.41;;;1.93;100.00
65760;BME280;52496;51.082;5.066;2023-01-31T06:34:52;102357.97;;;1.98;100.00
65760;BME280;52496;51.082;5.066;2023-01-31T06:37:22;102354.97;;;2.04;100.00
65760;BME280;52496;51.082;5.066;2023-01-31T06:39:53;102350.06;;;2.12;100.00
65760;BME280;52496;51.082;5.066;2023-01-31T06:42:23;102347.25;;;2.15;100.00
65760;BME280;52496;51.082;5.066;2023-01-31T06:44:54;102347.81;;;2.20;100.00
65760;BME280;52496;51.082;5.066;2023-01-31T06:47:24;102342.16;;;2.26;100.00
65760;BME280;52496;51.082;5.066;2023-01-31T06:49:55;102350.66;;;2.32;100.00
65760;BME280;52496;51.082;5.066;2023-01-31T06:52:25;102345.09;;;2.36;100.00
65760;BME280;52496;51.082;5.066;2023-01-31T06:54:56;102346.59;;;2.40;100.00
65760;BME280;52496;51.082;5.066;2023-01-31T06:57:26;102344.53;;;2.45;100.00
65760;BME280;52496;51.082;5.066;2023-01-31T06:59:57;102350.44;;;2.49;100.00
65760;BME280;52496;51.082;5.066;2023-01-31T07:02:27;102355.53;;;2.52;100.00
65760;BME280;52496;51.082;5.066;2023-01-31T07:04:58;102337.81;;;2.54;100.00
65760;BME280;52496;51.082;5.066;2023-01-31T07:07:28;102342.91;;;2.57;100.00
65760;BME280;52496;51.082;5.066;2023-01-31T07:09:59;102337.44;;;2.60;100.00
65760;BME280;52496;51.082;5.066;2023-01-31T07:12:29;102329.31;;;2.63;100.00
65760;BME280;52496;51.082;5.066;2023-01-31T07:15:00;102335.38;;;2.65;100.00
65760;BME280;52496;51.082;5.066;2023-01-31T07:17:32;102347.44;;;2.69;100.00
65760;BME280;52496;51.082;5.066;2023-01-31T07:20:03;102336.66;;;2.72;100.00
65760;BME280;52496;51.082;5.066;2023-01-31T07:22:33;102341.75;;;2.75;100.00
65760;BME280;52496;51.082;5.066;2023-01-31T07:25:04;102341.56;;;2.79;100.00
65760;BME280;52496;51.082;5.066;2023-01-31T07:27:35;102333.38;;;2.83;100.00
65760;BME280;52496;51.082;5.066;2023-01-31T07:30:05;102350.59;;;2.89;100.00
65760;BME280;52496;51.082;5.066;2023-01-31T07:32:36;102345.13;;;2.92;100.00
65760;BME280;52496;51.082;5.066;2023-01-31T07:35:07;102338.72;;;2.96;100.00
65760;BME280;52496;51.082;5.066;2023-01-31T07:37:37;102351.53;;;3.02;100.00
65760;BME280;52496;51.082;5.066;2023-01-31T07:40:13;102352.25;;;3.04;100.00
65760;BME280;52496;51.082;5.066;2023-01-31T07:42:44;102347.53;;;3.09;100.00
65760;BME280;52496;51.082;5.066;2023-01-31T07:45:15;102350.81;;;3.13;100.00
65760;BME280;52496;51.082;5.066;2023-01-31T07:47:46;102350.53;;;3.17;100.00
65760;BME280;52496;51.082;5.066;2023-01-31T07:50:16;102343.25;;;3.21;100.00
65760;BME280;52496;51.082;5.066;2023-01-31T07:52:47;102341.25;;;3.25;100.00
65760;BME280;52496;51.082;5.066;2023-01-31T07:55:18;102347.09;;;3.30;100.00
65760;BME280;52496;51.082;5.066;2023-01-31T07:57:48;102341.63;;;3.33;100.00
65760;BME280;52496;51.082;5.066;2023-01-31T08:00:20;102343.22;;;3.35;100.00
65760;BME280;52496;51.082;5.066;2023-01-31T08:03:22;102333.16;;;3.40;100.00
65760;BME280;52496;51.082;5.066;2023-01-31T08:06:09;102328.41;;;3.45;100.00
65760;BME280;52496;51.082;5.066;2023-01-31T08:08:41;102326.41;;;3.49;100.00
65760;BME280;52496;51.082;5.066;2023-01-31T08:11:12;102329.63;;;3.54;100.00
65760;BME280;52496;51.082;5.066;2023-01-31T08:13:42;102331.94;;;3.59;100.00
65760;BME280;52496;51.082;5.066;2023-01-31T08:16:13;102337.78;;;3.64;100.00
65760;BME280;52496;51.082;5.066;2023-01-31T08:18:43;102335.56;;;3.71;100.00
65760;BME280;52496;51.082;5.066;2023-01-31T08:21:14;102320.22;;;3.76;100.00
65760;BME280;52496;51.082;5.066;2023-01-31T08:23:45;102323.31;;;3.82;100.00
65760;BME280;52496;51.082;5.066;2023-01-31T08:26:18;102326.50;;;3.87;100.00
65760;BME280;52496;51.082;5.066;2023-01-31T08:28:50;102311.03;;;3.94;100.00
65760;BME280;52496;51.082;5.066;2023-01-31T08:31:23;102306.28;;;3.99;100.00
65760;BME280;52496;51.082;5.066;2023-01-31T08:33:54;102302.38;;;4.05;100.00
65760;BME280;52496;51.082;5.066;2023-01-31T08:36:28;102292.28;;;4.10;100.00
65760;BME280;52496;51.082;5.066;2023-01-31T08:39:01;102289.34;;;4.14;100.00
65760;BME280;52496;51.082;5.066;2023-01-31T08:41:33;102284.56;;;4.20;100.00
65760;BME280;52496;51.082;5.066;2023-01-31T08:44:04;102294.72;;;4.26;100.00
65760;BME280;52496;51.082;5.066;2023-01-31T08:46:36;102304.03;;;4.31;100.00
65760;BME280;52496;51.082;5.066;2023-01-31T08:49:06;102302.97;;;4.34;100.00
65760;BME280;52496;51.082;5.066;2023-01-31T08:51:37;102309.75;;;4.38;100.00
65760;BME280;52496;51.082;5.066;2023-01-31T08:54:08;102304.22;;;4.41;100.00
65760;BME280;52496;51.082;5.066;2023-01-31T08:56:39;102309.31;;;4.44;100.00
65760;BME280;52496;51.082;5.066;2023-01-31T08:59:10;102292.47;;;4.45;100.00
65760;BME280;52496;51.082;5.066;2023-01-31T09:01:41;102287.59;;;4.52;100.00
65760;BME280;52496;51.082;5.066;2023-01-31T09:04:14;102280.88;;;4.59;100.00
65760;BME280;52496;51.082;5.066;2023-01-31T09:06:45;102282.25;;;4.65;100.00
65760;BME280;52496;51.082;5.066;2023-01-31T09:09:15;102278.31;;;4.70;100.00
65760;BME280;52496;51.082;5.066;2023-01-31T09:11:45;102272.69;;;4.75;100.00
65760;BME280;52496;51.082;5.066;2023-01-31T09:14:16;102259.94;;;4.80;100.00
65760;BME280;52496;51.082;5.066;2023-01-31T09:16:46;102259.47;;;4.86;100.00
65760;BME280;52496;51.082;5.066;2023-01-31T09:19:17;102259.66;;;4.96;100.00
65760;BME280;52496;51.082;5.066;2023-01-31T09:21:48;102259.94;;;5.04;100.00
65760;BME280;52496;51.082;5.066;2023-01-31T09:24:18;102260.84;;;5.16;100.00
65760;BME280;52496;51.082;5.066;2023-01-31T09:26:49;102256.53;;;5.26;100.00
65760;BME280;52496;51.082;5.066;2023-01-31T09:29:19;102247.16;;;5.33;100.00
65760;BME280;52496;51.082;5.066;2023-01-31T09:31:53;102240.41;;;5.40;100.00
65760;BME280;52496;51.082;5.066;2023-01-31T09:34:23;102261.19;;;5.46;100.00
65760;BME280;52496;51.082;5.066;2023-01-31T09:36:54;102251.41;;;5.47;100.00
65760;BME280;52496;51.082;5.066;2023-01-31T09:39:26;102253.97;;;5.48;100.00
65760;BME280;52496;51.082;5.066;2023-01-31T09:42:02;102263.84;;;5.46;100.00
65760;BME280;52496;51.082;5.066;2023-01-31T09:44:42;102268.16;;;5.47;100.00
65760;BME280;52496;51.082;5.066;2023-01-31T09:47:19;102257.56;;;5.47;100.00
65760;BME280;52496;51.082;5.066;2023-01-31T09:52:30;102256.16;;;5.55;100.00
65760;BME280;52496;51.082;5.066;2023-01-31T09:55:01;102251.06;;;5.63;100.00
65760;BME280;52496;51.082;5.066;2023-01-31T10:07:27;102232.34;;;6.22;100.00
65760;BME280;52496;51.082;5.066;2023-01-31T10:12:52;102219.41;;;6.40;100.00
65760;BME280;52496;51.082;5.066;2023-01-31T10:15:36;102223.13;;;6.49;100.00
65760;BME280;52496;51.082;5.066;2023-01-31T10:18:15;102224.06;;;6.59;100.00
65760;BME280;52496;51.082;5.066;2023-01-31T10:20:53;102215.34;;;6.68;100.00
65760;BME280;52496;51.082;5.066;2023-01-31T10:26:19;102235.09;;;6.86;100.00
65760;BME280;52496;51.082;5.066;2023-01-31T10:29:05;102214.88;;;6.95;100.00
65760;BME280;52496;51.082;5.066;2023-01-31T10:31:59;102207.13;;;7.03;100.00
65760;BME280;52496;51.082;5.066;2023-01-31T10:34:39;102198.03;;;7.06;100.00
65760;BME280;52496;51.082;5.066;2023-01-31T10:39:50;102208.28;;;7.10;100.00
65760;BME280;52496;51.082;5.066;2023-01-31T10:42:34;102212.78;;;7.10;100.00
65760;BME280;52496;51.082;5.066;2023-01-31T10:47:49;102203.81;;;7.11;100.00
65760;BME280;52496;51.082;5.066;2023-01-31T10:50:41;102185.41;;;7.19;100.00
65760;BME280;52496;51.082;5.066;2023-01-31T10:56:28;102186.19;;;7.52;100.00
65760;BME280;52496;51.082;5.066;2023-01-31T10:59:09;102183.41;;;7.63;100.00
65760;BME280;52496;51.082;5.066;2023-01-31T11:01:40;102177.41;;;7.61;100.00
65760;BME280;52496;51.082;5.066;2023-01-31T11:04:38;102171.34;;;7.59;100.00
65760;BME280;52496;51.082;5.066;2023-01-31T11:07:09;102185.66;;;7.58;100.00
65760;BME280;52496;51.082;5.066;2023-01-31T11:09:42;102167.97;;;7.57;100.00
65760;BME280;52496;51.082;5.066;2023-01-31T11:12:16;102167.00;;;7.58;100.00
65760;BME280;52496;51.082;5.066;2023-01-31T11:15:13;102178.09;;;7.63;100.00
65760;BME280;52496;51.082;5.066;2023-01-31T11:17:45;102168.59;;;7.70;100.00
65760;BME280;52496;51.082;5.066;2023-01-31T11:20:23;102170.03;;;7.74;100.00
65760;BME280;52496;51.082;5.066;2023-01-31T11:22:56;102163.44;;;7.78;100.00
65760;BME280;52496;51.082;5.066;2023-01-31T11:25:29;102158.84;;;7.80;100.00
65760;BME280;52496;51.082;5.066;2023-01-31T11:28:15;102159.28;;;7.86;100.00
65760;BME280;52496;51.082;5.066;2023-01-31T11:30:49;102158.47;;;7.95;100.00
65760;BME280;52496;51.082;5.066;2023-01-31T11:33:37;102151.63;;;8.02;100.00
65760;BME280;52496;51.082;5.066;2023-01-31T11:36:10;102142.25;;;8.08;100.00
65760;BME280;52496;51.082;5.066;2023-01-31T11:38:41;102141.53;;;8.15;100.00
65760;BME280;52496;51.082;5.066;2023-01-31T11:46:55;102133.72;;;8.23;100.00
65760;BME280;52496;51.082;5.066;2023-01-31T11:49:39;102134.28;;;8.37;100.00
65760;BME280;52496;51.082;5.066;2023-01-31T11:52:21;102121.16;;;8.45;100.00
65760;BME280;52496;51.082;5.066;2023-01-31T11:55:05;102125.94;;;8.51;100.00
65760;BME280;52496;51.082;5.066;2023-01-31T11:57:37;102120.03;;;8.57;100.00
65760;BME280;52496;51.082;5.066;2023-01-31T12:00:26;102124.41;;;8.58;100.00
65760;BME280;52496;51.082;5.066;2023-01-31T12:03:03;102125.53;;;8.56;100.00
65760;BME280;52496;51.082;5.066;2023-01-31T12:05:37;102114.16;;;8.44;100.00
65760;BME280;52496;51.082;5.066;2023-01-31T12:08:32;102128.97;;;8.37;100.00
65760;BME280;52496;51.082;5.066;2023-01-31T12:11:05;102116.06;;;8.32;100.00
65760;BME280;52496;51.082;5.066;2023-01-31T12:13:52;102116.63;;;8.26;100.00
65760;BME280;52496;51.082;5.066;2023-01-31T12:16:25;102116.06;;;8.22;100.00
65760;BME280;52496;51.082;5.066;2023-01-31T12:36:49;102130.06;;;8.15;100.00
65760;BME280;52496;51.082;5.066;2023-01-31T12:42:38;102118.00;;;8.11;100.00
65760;BME280;52496;51.082;5.066;2023-01-31T12:45:43;102120.50;;;8.12;100.00
65760;BME280;52496;51.082;5.066;2023-01-31T12:59:33;102115.03;;;8.04;100.00
65760;BME280;52496;51.082;5.066;2023-01-31T13:02:15;102113.75;;;7.98;100.00
65760;BME280;52496;51.082;5.066;2023-01-31T13:04:55;102123.00;;;7.94;100.00
65760;BME280;52496;51.082;5.066;2023-01-31T13:07:38;102119.63;;;7.92;100.00
65760;BME280;52496;51.082;5.066;2023-01-31T13:10:24;102124.38;;;7.89;100.00
65760;BME280;52496;51.082;5.066;2023-01-31T13:12:57;102131.09;;;7.83;100.00
65760;BME280;52496;51.082;5.066;2023-01-31T13:15:39;102130.53;;;7.79;100.00
65760;BME280;52496;51.082;5.066;2023-01-31T13:18:13;102129.09;;;7.75;100.00
65760;BME280;52496;51.082;5.066;2023-01-31T13:21:05;102138.06;;;7.74;100.00
65760;BME280;52496;51.082;5.066;2023-01-31T13:23:39;102134.94;;;7.69;100.00
65760;BME280;52496;51.082;5.066;2023-01-31T13:26:30;102132.44;;;7.68;100.00
65760;BME280;52496;51.082;5.066;2023-01-31T13:29:17;102131.88;;;7.64;100.00
65760;BME280;52496;51.082;5.066;2023-01-31T13:31:59;102122.31;;;7.62;100.00
65760;BME280;52496;51.082;5.066;2023-01-31T13:34:42;102127.75;;;7.60;100.00
65760;BME280;52496;51.082;5.066;2023-01-31T13:37:14;102118.94;;;7.59;100.00
65760;BME280;52496;51.082;5.066;2023-01-31T13:39:54;102121.75;;;7.58;100.00
65760;BME280;52496;51.082;5.066;2023-01-31T13:42:26;102113.88;;;7.56;100.00
65760;BME280;52496;51.082;5.066;2023-01-31T13:45:02;102111.50;;;7.53;100.00
65760;BME280;52496;51.082;5.066;2023-01-31T13:47:45;102106.31;;;7.52;100.00
65760;BME280;52496;51.082;5.066;2023-01-31T13:52:53;102106.31;;;7.52;100.00
65760;BME280;52496;51.082;5.066;2023-01-31T13:55:35;102108.25;;;7.50;100.00
65760;BME280;52496;51.082;5.066;2023-01-31T13:58:07;102109.94;;;7.51;100.00
65760;BME280;52496;51.082;5.066;2023-01-31T14:00:44;102103.66;;;7.52;100.00
65760;BME280;52496;51.082;5.066;2023-01-31T14:03:19;102097.34;;;7.53;100.00
65760;BME280;52496;51.082;5.066;2023-01-31T14:05:58;102098.19;;;7.53;100.00
65760;BME280;52496;51.082;5.066;2023-01-31T14:08:36;102097.34;;;7.53;100.00
65760;BME280;52496;51.082;5.066;2023-01-31T14:13:49;102103.22;;;7.56;100.00
65760;BME280;52496;51.082;5.066;2023-01-31T14:16:37;102106.88;;;7.55;100.00
65760;BME280;52496;51.082;5.066;2023-01-31T14:27:20;102088.22;;;7.46;100.00
65760;BME280;52496;51.082;5.066;2023-01-31T14:37:57;102112.81;;;7.38;100.00
65760;BME280;52496;51.082;5.066;2023-01-31T14:43:50;102122.47;;;7.39;100.00
65760;BME280;52496;51.082;5.066;2023-01-31T14:49:39;102132.28;;;7.39;100.00
65760;BME280;52496;51.082;5.066;2023-01-31T14:57:41;102134.00;;;7.40;100.00
65760;BME280;52496;51.082;5.066;2023-01-31T15:00:32;102144.63;;;7.40;100.00
65760;BME280;52496;51.082;5.066;2023-01-31T15:03:27;102144.63;;;7.40;100.00
65760;BME280;52496;51.082;5.066;2023-01-31T15:06:14;102141.00;;;7.41;100.00
65760;BME280;52496;51.082;5.066;2023-01-31T15:08:48;102156.97;;;7.41;100.00
65760;BME280;52496;51.082;5.066;2023-01-31T15:13:55;102156.97;;;7.41;100.00
65760;BME280;52496;51.082;5.066;2023-01-31T15:16:31;102153.31;;;7.42;100.00
65760;BME280;52496;51.082;5.066;2023-01-31T15:19:22;102156.81;;;7.42;100.00
65760;BME280;52496;51.082;5.066;2023-01-31T15:21:57;102156.69;;;7.44;100.00
65760;BME280;52496;51.082;5.066;2023-01-31T15:24:49;102156.56;;;7.45;100.00
65760;BME280;52496;51.082;5.066;2023-01-31T15:30:17;102157.16;;;7.49;100.00
65760;BME280;52496;51.082;5.066;2023-01-31T15:33:19;102152.53;;;7.51;100.00
65760;BME280;52496;51.082;5.066;2023-01-31T15:38:50;102162.06;;;7.53;100.00
65760;BME280;52496;51.082;5.066;2023-01-31T15:41:45;102153.97;;;7.55;100.00
65760;BME280;52496;51.082;5.066;2023-01-31T15:44:21;102160.13;;;7.55;100.00